sensor_id;sensor_type;location;lat;lon;timestamp;P1;durP1;ratioP1;P2;durP2;ratioP2
72123;SDS011;63818;37.134;-8.548;2023-05-31T00:04:10;9.6;;;5.2;;
72123;SDS011;63818;37.134;-8.548;2023-05-31T00:08:56;11.5;;;5.3;;
72123;SDS011;63818;37.134;-8.548;2023-05-31T00:13:43;10.2;;;5.2;;
72123;SDS011;63818;37.134;-8.548;2023-05-31T00:18:28;9.2;;;5.3;;
72123;SDS011;63818;37.134;-8.548;2023-05-31T00:23:14;9.0;;;5.2;;
72123;SDS011;63818;37.134;-8.548;2023-05-31T00:28:01;8.3;;;5.2;;
72123;SDS011;63818;37.134;-8.548;2023-05-31T00:32:47;9.0;;;5.5;;
72123;SDS011;63818;37.134;-8.548;2023-05-31T00:37:33;9.5;;;5.4;;
72123;SDS011;63818;37.134;-8.548;2023-05-31T00:42:19;9.5;;;5.1;;
72123;SDS011;63818;37.134;-8.548;2023-05-31T00:47:05;9.1;;;5.1;;
72123;SDS011;63818;37.134;-8.548;2023-05-31T00:51:51;10.9;;;5.5;;
72123;SDS011;63818;37.134;-8.548;2023-05-31T00:56:37;11.9;;;5.7;;
72123;SDS011;63818;37.134;-8.548;2023-05-31T01:01:24;9.3;;;5.3;;
72123;SDS011;63818;37.134;-8.548;2023-05-31T01:06:10;10.5;;;5.4;;
72123;SDS011;63818;37.134;-8.548;2023-05-31T01:10:57;11.2;;;5.5;;
72123;SDS011;63818;37.134;-8.548;2023-05-31T01:15:50;10.5;;;5.4;;
72123;SDS011;63818;37.134;-8.548;2023-05-31T01:20:41;10.7;;;5.4;;
72123;SDS011;63818;37.134;-8.548;2023-05-31T01:31:41;8.7;;;5.2;;
72123;SDS011;63818;37.134;-8.548;2023-05-31T01:36:27;10.5;;;5.3;;
72123;SDS011;63818;37.134;-8.548;2023-05-31T01:41:13;10.2;;;5.3;;
72123;SDS011;63818;37.134;-8.548;2023-05-31T01:46:00;10.5;;;5.2;;
72123;SDS011;63818;37.134;-8.548;2023-05-31T01:50:47;10.2;;;5.0;;
72123;SDS011;63818;37.134;-8.548;2023-05-31T01:55:35;9.9;;;5.2;;
72123;SDS011;63818;37.134;-8.548;2023-05-31T02:00:21;11.5;;;5.3;;
72123;SDS011;63818;37.134;-8.548;2023-05-31T02:05:10;9.9;;;5.1;;
72123;SDS011;63818;37.134;-8.548;2023-05-31T02:09:57;8.9;;;5.0;;
72123;SDS011;63818;37.134;-8.548;2023-05-31T02:14:43;10.2;;;5.1;;
72123;SDS011;63818;37.134;-8.548;2023-05-31T02:19:29;9.8;;;5.0;;
72123;SDS011;63818;37.134;-8.548;2023-05-31T02:24:15;8.9;;;4.9;;
72123;SDS011;63818;37.134;-8.548;2023-05-31T02:29:01;8.1;;;5.0;;
72123;SDS011;63818;37.134;-8.548;2023-05-31T02:33:47;7.8;;;5.1;;
72123;SDS011;63818;37.134;-8.548;2023-05-31T02:38:33;9.0;;;5.3;;
72123;SDS011;63818;37.134;-8.548;2023-05-31T02:43:19;9.9;;;5.2;;
72123;SDS011;63818;37.134;-8.548;2023-05-31T02:48:05;9.3;;;4.9;;
72123;SDS011;63818;37.134;-8.548;2023-05-31T02:52:51;8.6;;;4.9;;
72123;SDS011;63818;37.134;-8.548;2023-05-31T02:57:39;9.8;;;5.2;;
72123;SDS011;63818;37.134;-8.548;2023-05-31T03:02:25;11.5;;;5.6;;
72123;SDS011;63818;37.134;-8.548;2023-05-31T03:07:11;12.0;;;5.7;;
72123;SDS011;63818;37.134;-8.548;2023-05-31T03:11:56;11.5;;;5.4;;
72123;SDS011;63818;37.134;-8.548;2023-05-31T03:16:42;13.9;;;5.4;;
72123;SDS011;63818;37.134;-8.548;2023-05-31T03:21:28;13.7;;;6.0;;
72123;SDS011;63818;37.134;-8.548;2023-05-31T03:26:14;11.4;;;6.0;;
72123;SDS011;63818;37.134;-8.548;2023-05-31T03:31:00;10.3;;;5.6;;
72123;SDS011;63818;37.134;-8.548;2023-05-31T03:35:46;9.6;;;5.6;;
72123;SDS011;63818;37.134;-8.548;2023-05-31T03:40:32;11.4;;;5.6;;
72123;SDS011;63818;37.134;-8.548;2023-05-31T03:45:20;10.5;;;5.5;;
72123;SDS011;63818;37.134;-8.548;2023-05-31T03:50:06;9.1;;;5.5;;
72123;SDS011;63818;37.134;-8.548;2023-05-31T03:54:52;11.5;;;6.0;;
72123;SDS011;63818;37.134;-8.548;2023-05-31T03:59:39;12.6;;;6.2;;
72123;SDS011;63818;37.134;-8.548;2023-05-31T04:04:25;14.0;;;5.8;;
72123;SDS011;63818;37.134;-8.548;2023-05-31T04:09:11;12.9;;;5.6;;
72123;SDS011;63818;37.134;-8.548;2023-05-31T04:13:57;9.9;;;5.7;;
72123;SDS011;63818;37.134;-8.548;2023-05-31T04:18:43;9.7;;;5.8;;
72123;SDS011;63818;37.134;-8.548;2023-05-31T04:23:29;10.3;;;5.7;;
72123;SDS011;63818;37.134;-8.548;2023-05-31T04:28:15;11.3;;;5.8;;
72123;SDS011;63818;37.134;-8.548;2023-05-31T04:33:00;10.7;;;5.9;;
72123;SDS011;63818;37.134;-8.548;2023-05-31T04:37:46;10.1;;;5.9;;
72123;SDS011;63818;37.134;-8.548;2023-05-31T04:42:32;8.8;;;5.7;;
72123;SDS011;63818;37.134;-8.548;2023-05-31T04:47:21;8.5;;;5.6;;
72123;SDS011;63818;37.134;-8.548;2023-05-31T04:52:07;9.8;;;6.2;;
72123;SDS011;63818;37.134;-8.548;2023-05-31T04:56:53;13.2;;;6.6;;
72123;SDS011;63818;37.134;-8.548;2023-05-31T05:01:39;13.4;;;6.4;;
72123;SDS011;63818;37.134;-8.548;2023-05-31T05:06:25;12.5;;;6.2;;
72123;SDS011;63818;37.134;-8.548;2023-05-31T05:11:11;13.2;;;6.4;;
72123;SDS011;63818;37.134;-8.548;2023-05-31T05:15:57;13.0;;;6.6;;
72123;SDS011;63818;37.134;-8.548;2023-05-31T05:20:43;13.4;;;6.5;;
72123;SDS011;63818;37.134;-8.548;2023-05-31T05:25:29;11.3;;;6.4;;
72123;SDS011;63818;37.134;-8.548;2023-05-31T05:30:16;10.2;;;6.4;;
72123;SDS011;63818;37.134;-8.548;2023-05-31T05:35:04;9.7;;;6.2;;
72123;SDS011;63818;37.134;-8.548;2023-05-31T05:39:51;10.8;;;6.8;;
72123;SDS011;63818;37.134;-8.548;2023-05-31T05:44:37;15.3;;;7.3;;
72123;SDS011;63818;37.134;-8.548;2023-05-31T05:49:23;15.9;;;6.9;;
72123;SDS011;63818;37.134;-8.548;2023-05-31T05:54:09;14.2;;;6.6;;
72123;SDS011;63818;37.134;-8.548;2023-05-31T05:58:55;14.3;;;7.1;;
72123;SDS011;63818;37.134;-8.548;2023-05-31T06:03:41;13.1;;;7.0;;
72123;SDS011;63818;37.134;-8.548;2023-05-31T06:08:28;13.2;;;6.4;;
72123;SDS011;63818;37.134;-8.548;2023-05-31T06:13:16;13.1;;;6.3;;
72123;SDS011;63818;37.134;-8.548;2023-05-31T06:18:02;12.9;;;6.8;;
72123;SDS011;63818;37.134;-8.548;2023-05-31T06:22:49;13.9;;;7.3;;
72123;SDS011;63818;37.134;-8.548;2023-05-31T06:27:34;12.9;;;7.1;;
72123;SDS011;63818;37.134;-8.548;2023-05-31T06:32:20;12.3;;;6.9;;
72123;SDS011;63818;37.134;-8.548;2023-05-31T06:37:07;12.0;;;7.0;;
72123;SDS011;63818;37.134;-8.548;2023-05-31T06:41:53;14.6;;;7.4;;
72123;SDS011;63818;37.134;-8.548;2023-05-31T06:46:38;14.8;;;7.5;;
72123;SDS011;63818;37.134;-8.548;2023-05-31T06:51:24;11.5;;;7.5;;
72123;SDS011;63818;37.134;-8.548;2023-05-31T06:56:11;11.3;;;7.4;;
72123;SDS011;63818;37.134;-8.548;2023-05-31T07:00:57;13.2;;;7.1;;
72123;SDS011;63818;37.134;-8.548;2023-05-31T07:05:43;14.8;;;6.8;;
72123;SDS011;63818;37.134;-8.548;2023-05-31T07:10:29;11.6;;;6.6;;
72123;SDS011;63818;37.134;-8.548;2023-05-31T07:15:15;9.6;;;6.7;;
72123;SDS011;63818;37.134;-8.548;2023-05-31T07:20:04;12.8;;;6.8;;
72123;SDS011;63818;37.134;-8.548;2023-05-31T07:24:51;14.7;;;7.1;;
72123;SDS011;63818;37.134;-8.548;2023-05-31T07:29:37;14.2;;;7.3;;
72123;SDS011;63818;37.134;-8.548;2023-05-31T07:34:23;13.9;;;7.6;;
72123;SDS011;63818;37.134;-8.548;2023-05-31T07:39:09;13.9;;;7.9;;
72123;SDS011;63818;37.134;-8.548;2023-05-31T07:43:55;17.7;;;8.6;;
72123;SDS011;63818;37.134;-8.548;2023-05-31T07:48:41;15.2;;;8.2;;
72123;SDS011;63818;37.134;-8.548;2023-05-31T07:53:26;11.9;;;7.9;;
72123;SDS011;63818;37.134;-8.548;2023-05-31T07:58:12;12.5;;;7.7;;
72123;SDS011;63818;37.134;-8.548;2023-05-31T08:02:58;14.0;;;7.8;;
72123;SDS011;63818;37.134;-8.548;2023-05-31T08:07:46;14.1;;;8.0;;
72123;SDS011;63818;37.134;-8.548;2023-05-31T08:12:33;13.9;;;8.2;;
72123;SDS011;63818;37.134;-8.548;2023-05-31T08:17:19;14.8;;;8.7;;
72123;SDS011;63818;37.134;-8.548;2023-05-31T08:22:05;14.9;;;8.4;;
72123;SDS011;63818;37.134;-8.548;2023-05-31T08:26:51;14.1;;;7.8;;
72123;SDS011;63818;37.134;-8.548;2023-05-31T08:31:37;13.2;;;7.3;;
72123;SDS011;63818;37.134;-8.548;2023-05-31T08:36:26;13.6;;;7.7;;
72123;SDS011;63818;37.134;-8.548;2023-05-31T08:41:12;12.7;;;7.4;;
72123;SDS011;63818;37.134;-8.548;2023-05-31T08:45:58;11.0;;;6.4;;
72123;SDS011;63818;37.134;-8.548;2023-05-31T08:50:44;12.2;;;7.0;;
72123;SDS011;63818;37.134;-8.548;2023-05-31T08:55:33;14.8;;;7.2;;
72123;SDS011;63818;37.134;-8.548;2023-05-31T09:00:20;17.3;;;7.2;;
72123;SDS011;63818;37.134;-8.548;2023-05-31T09:05:07;15.7;;;7.2;;
72123;SDS011;63818;37.134;-8.548;2023-05-31T09:09:54;14.2;;;6.8;;
72123;SDS011;63818;37.134;-8.548;2023-05-31T09:14:40;12.2;;;6.1;;
72123;SDS011;63818;37.134;-8.548;2023-05-31T09:19:29;9.0;;;5.4;;
72123;SDS011;63818;37.134;-8.548;2023-05-31T09:24:16;9.4;;;5.2;;
72123;SDS011;63818;37.134;-8.548;2023-05-31T09:29:01;10.3;;;5.1;;
72123;SDS011;63818;37.134;-8.548;2023-05-31T09:33:52;9.2;;;5.1;;
72123;SDS011;63818;37.134;-8.548;2023-05-31T09:38:38;8.5;;;5.3;;
72123;SDS011;63818;37.134;-8.548;2023-05-31T09:43:25;10.5;;;5.8;;
72123;SDS011;63818;37.134;-8.548;2023-05-31T09:48:12;14.0;;;6.2;;
72123;SDS011;63818;37.134;-8.548;2023-05-31T09:52:58;13.4;;;6.0;;
72123;SDS011;63818;37.134;-8.548;2023-05-31T09:57:46;10.1;;;5.5;;
72123;SDS011;63818;37.134;-8.548;2023-05-31T10:02:32;9.2;;;5.3;;
72123;SDS011;63818;37.134;-8.548;2023-05-31T10:07:18;9.2;;;5.2;;
72123;SDS011;63818;37.134;-8.548;2023-05-31T10:12:05;9.2;;;5.3;;
72123;SDS011;63818;37.134;-8.548;2023-05-31T10:16:53;8.3;;;5.2;;
72123;SDS011;63818;37.134;-8.548;2023-05-31T10:21:41;9.5;;;5.2;;
72123;SDS011;63818;37.134;-8.548;2023-05-31T10:26:30;12.5;;;5.6;;
72123;SDS011;63818;37.134;-8.548;2023-05-31T10:31:22;11.4;;;6.0;;
72123;SDS011;63818;37.134;-8.548;2023-05-31T10:36:11;8.5;;;5.7;;
72123;SDS011;63818;37.134;-8.548;2023-05-31T10:40:59;9.2;;;5.0;;
72123;SDS011;63818;37.134;-8.548;2023-05-31T10:45:50;9.4;;;5.1;;
72123;SDS011;63818;37.134;-8.548;2023-05-31T10:50:52;9.0;;;5.3;;
72123;SDS011;63818;37.134;-8.548;2023-05-31T10:55:42;13.9;;;5.3;;
72123;SDS011;63818;37.134;-8.548;2023-05-31T11:00:29;15.0;;;5.4;;
72123;SDS011;63818;37.134;-8.548;2023-05-31T11:05:22;10.9;;;5.3;;
72123;SDS011;63818;37.134;-8.548;2023-05-31T11:10:09;9.9;;;5.1;;
72123;SDS011;63818;37.134;-8.548;2023-05-31T11:15:00;10.0;;;5.1;;
72123;SDS011;63818;37.134;-8.548;2023-05-31T11:19:53;9.1;;;5.3;;
72123;SDS011;63818;37.134;-8.548;2023-05-31T11:24:48;8.2;;;5.4;;
72123;SDS011;63818;37.134;-8.548;2023-05-31T11:30:12;8.8;;;5.3;;
72123;SDS011;63818;37.134;-8.548;2023-05-31T11:35:01;9.3;;;5.5;;
72123;SDS011;63818;37.134;-8.548;2023-05-31T11:39:54;8.5;;;5.4;;
72123;SDS011;63818;37.134;-8.548;2023-05-31T11:44:43;8.5;;;5.2;;
72123;SDS011;63818;37.134;-8.548;2023-05-31T11:49:31;10.5;;;5.7;;
72123;SDS011;63818;37.134;-8.548;2023-05-31T11:54:17;12.2;;;5.8;;
72123;SDS011;63818;37.134;-8.548;2023-05-31T11:59:03;13.0;;;6.5;;
72123;SDS011;63818;37.134;-8.548;2023-05-31T12:03:49;11.3;;;7.1;;
72123;SDS011;63818;37.134;-8.548;2023-05-31T12:08:45;10.8;;;6.9;;
72123;SDS011;63818;37.134;-8.548;2023-05-31T12:13:32;10.5;;;6.3;;
72123;SDS011;63818;37.134;-8.548;2023-05-31T12:18:18;9.1;;;6.0;;
72123;SDS011;63818;37.134;-8.548;2023-05-31T12:23:14;10.4;;;5.8;;
72123;SDS011;63818;37.134;-8.548;2023-05-31T12:28:01;11.7;;;5.5;;
72123;SDS011;63818;37.134;-8.548;2023-05-31T12:32:48;13.1;;;5.6;;
72123;SDS011;63818;37.134;-8.548;2023-05-31T12:37:37;13.8;;;7.1;;
72123;SDS011;63818;37.134;-8.548;2023-05-31T12:42:26;16.2;;;9.7;;
72123;SDS011;63818;37.134;-8.548;2023-05-31T12:47:12;15.3;;;8.6;;
72123;SDS011;63818;37.134;-8.548;2023-05-31T12:51:59;11.4;;;6.3;;
72123;SDS011;63818;37.134;-8.548;2023-05-31T12:56:45;10.5;;;6.0;;
72123;SDS011;63818;37.134;-8.548;2023-05-31T13:01:31;9.2;;;5.7;;
72123;SDS011;63818;37.134;-8.548;2023-05-31T13:06:17;8.9;;;5.9;;
72123;SDS011;63818;37.134;-8.548;2023-05-31T13:11:03;8.5;;;5.8;;
72123;SDS011;63818;37.134;-8.548;2023-05-31T13:15:50;8.9;;;5.7;;
72123;SDS011;63818;37.134;-8.548;2023-05-31T13:20:36;9.8;;;5.7;;
72123;SDS011;63818;37.134;-8.548;2023-05-31T13:25:24;9.5;;;5.4;;
72123;SDS011;63818;37.134;-8.548;2023-05-31T13:30:10;9.4;;;5.4;;
72123;SDS011;63818;37.134;-8.548;2023-05-31T13:34:56;10.5;;;5.5;;
72123;SDS011;63818;37.134;-8.548;2023-05-31T13:39:42;10.4;;;5.6;;
72123;SDS011;63818;37.134;-8.548;2023-05-31T13:44:28;8.7;;;5.4;;
72123;SDS011;63818;37.134;-8.548;2023-05-31T13:49:17;8.8;;;5.4;;
72123;SDS011;63818;37.134;-8.548;2023-05-31T13:54:02;10.6;;;5.6;;
72123;SDS011;63818;37.134;-8.548;2023-05-31T13:58:48;12.1;;;5.5;;
72123;SDS011;63818;37.134;-8.548;2023-05-31T14:03:36;11.7;;;5.2;;
72123;SDS011;63818;37.134;-8.548;2023-05-31T14:08:24;9.8;;;4.9;;
72123;SDS011;63818;37.134;-8.548;2023-05-31T14:13:09;8.8;;;4.9;;
72123;SDS011;63818;37.134;-8.548;2023-05-31T14:17:56;8.8;;;5.1;;
72123;SDS011;63818;37.134;-8.548;2023-05-31T14:22:42;10.3;;;5.1;;
72123;SDS011;63818;37.134;-8.548;2023-05-31T14:27:30;11.4;;;4.9;;
72123;SDS011;63818;37.134;-8.548;2023-05-31T14:32:16;13.2;;;5.2;;
72123;SDS011;63818;37.134;-8.548;2023-05-31T14:37:03;11.3;;;4.9;;
72123;SDS011;63818;37.134;-8.548;2023-05-31T14:41:49;8.1;;;4.8;;
72123;SDS011;63818;37.134;-8.548;2023-05-31T14:46:35;10.3;;;5.2;;
72123;SDS011;63818;37.134;-8.548;2023-05-31T14:51:21;10.2;;;4.9;;
72123;SDS011;63818;37.134;-8.548;2023-05-31T14:56:08;9.4;;;4.4;;
72123;SDS011;63818;37.134;-8.548;2023-05-31T15:00:54;9.9;;;4.5;;
72123;SDS011;63818;37.134;-8.548;2023-05-31T15:05:42;12.0;;;4.9;;
72123;SDS011;63818;37.134;-8.548;2023-05-31T15:10:28;10.9;;;4.9;;
72123;SDS011;63818;37.134;-8.548;2023-05-31T15:15:14;7.5;;;4.6;;
72123;SDS011;63818;37.134;-8.548;2023-05-31T15:20:00;7.7;;;4.6;;
72123;SDS011;63818;37.134;-8.548;2023-05-31T15:24:46;8.8;;;4.7;;
72123;SDS011;63818;37.134;-8.548;2023-05-31T15:29:34;12.6;;;4.9;;
72123;SDS011;63818;37.134;-8.548;2023-05-31T15:34:20;13.1;;;5.3;;
72123;SDS011;63818;37.134;-8.548;2023-05-31T15:39:08;10.3;;;5.6;;
72123;SDS011;63818;37.134;-8.548;2023-05-31T15:43:54;10.6;;;5.4;;
72123;SDS011;63818;37.134;-8.548;2023-05-31T15:48:40;11.5;;;5.1;;
72123;SDS011;63818;37.134;-8.548;2023-05-31T15:53:26;11.5;;;4.9;;
72123;SDS011;63818;37.134;-8.548;2023-05-31T15:58:12;9.2;;;4.7;;
72123;SDS011;63818;37.134;-8.548;2023-05-31T16:03:03;9.6;;;4.7;;
72123;SDS011;63818;37.134;-8.548;2023-05-31T16:07:53;10.8;;;4.8;;
72123;SDS011;63818;37.134;-8.548;2023-05-31T16:12:44;9.6;;;4.8;;
72123;SDS011;63818;37.134;-8.548;2023-05-31T16:17:30;10.6;;;4.9;;
72123;SDS011;63818;37.134;-8.548;2023-05-31T16:22:17;11.3;;;5.1;;
72123;SDS011;63818;37.134;-8.548;2023-05-31T16:27:03;13.6;;;5.5;;
72123;SDS011;63818;37.134;-8.548;2023-05-31T16:31:49;13.1;;;5.4;;
72123;SDS011;63818;37.134;-8.548;2023-05-31T16:36:36;9.0;;;5.0;;
72123;SDS011;63818;37.134;-8.548;2023-05-31T16:41:24;8.3;;;4.8;;
72123;SDS011;63818;37.134;-8.548;2023-05-31T16:46:12;8.9;;;4.8;;
72123;SDS011;63818;37.134;-8.548;2023-05-31T16:50:58;8.4;;;4.7;;
72123;SDS011;63818;37.134;-8.548;2023-05-31T16:55:45;9.2;;;4.7;;
72123;SDS011;63818;37.134;-8.548;2023-05-31T17:01:01;11.2;;;4.8;;
72123;SDS011;63818;37.134;-8.548;2023-05-31T17:05:53;12.5;;;5.0;;
72123;SDS011;63818;37.134;-8.548;2023-05-31T17:10:39;13.0;;;5.3;;
72123;SDS011;63818;37.134;-8.548;2023-05-31T17:16:03;11.7;;;5.4;;
72123;SDS011;63818;37.134;-8.548;2023-05-31T17:20:52;8.9;;;5.0;;
72123;SDS011;63818;37.134;-8.548;2023-05-31T17:25:38;8.0;;;4.6;;
72123;SDS011;63818;37.134;-8.548;2023-05-31T17:30:25;9.1;;;4.7;;
72123;SDS011;63818;37.134;-8.548;2023-05-31T17:35:14;9.4;;;4.8;;
72123;SDS011;63818;37.134;-8.548;2023-05-31T17:40:00;9.4;;;4.8;;
72123;SDS011;63818;37.134;-8.548;2023-05-31T17:44:47;10.0;;;4.6;;
72123;SDS011;63818;37.134;-8.548;2023-05-31T17:49:33;9.3;;;4.6;;
72123;SDS011;63818;37.134;-8.548;2023-05-31T17:54:24;8.4;;;4.7;;
72123;SDS011;63818;37.134;-8.548;2023-05-31T17:59:10;9.8;;;4.7;;
72123;SDS011;63818;37.134;-8.548;2023-05-31T18:03:58;9.6;;;4.7;;
72123;SDS011;63818;37.134;-8.548;2023-05-31T18:08:51;8.1;;;4.6;;
72123;SDS011;63818;37.134;-8.548;2023-05-31T18:13:37;7.7;;;4.7;;
72123;SDS011;63818;37.134;-8.548;2023-05-31T18:18:25;7.5;;;4.9;;
72123;SDS011;63818;37.134;-8.548;2023-05-31T18:23:13;8.2;;;4.8;;
72123;SDS011;63818;37.134;-8.548;2023-05-31T18:27:59;8.1;;;4.5;;
72123;SDS011;63818;37.134;-8.548;2023-05-31T18:32:46;9.3;;;4.7;;
72123;SDS011;63818;37.134;-8.548;2023-05-31T18:37:32;11.2;;;4.8;;
72123;SDS011;63818;37.134;-8.548;2023-05-31T18:42:18;9.5;;;4.6;;
72123;SDS011;63818;37.134;-8.548;2023-05-31T18:47:05;9.0;;;4.8;;
72123;SDS011;63818;37.134;-8.548;2023-05-31T18:51:52;8.6;;;4.8;;
72123;SDS011;63818;37.134;-8.548;2023-05-31T18:56:38;7.5;;;4.5;;
72123;SDS011;63818;37.134;-8.548;2023-05-31T19:01:24;8.1;;;4.6;;
72123;SDS011;63818;37.134;-8.548;2023-05-31T19:06:10;7.4;;;4.5;;
72123;SDS011;63818;37.134;-8.548;2023-05-31T19:10:56;9.6;;;4.8;;
72123;SDS011;63818;37.134;-8.548;2023-05-31T19:15:42;10.2;;;4.9;;
72123;SDS011;63818;37.134;-8.548;2023-05-31T19:20:28;8.2;;;4.6;;
72123;SDS011;63818;37.134;-8.548;2023-05-31T19:25:15;8.8;;;4.5;;
72123;SDS011;63818;37.134;-8.548;2023-05-31T19:30:02;9.2;;;4.7;;
72123;SDS011;63818;37.134;-8.548;2023-05-31T19:34:48;10.2;;;5.0;;
72123;SDS011;63818;37.134;-8.548;2023-05-31T19:39:34;10.4;;;5.1;;
72123;SDS011;63818;37.134;-8.548;2023-05-31T19:44:20;8.9;;;5.1;;
72123;SDS011;63818;37.134;-8.548;2023-05-31T19:49:06;9.6;;;5.1;;
72123;SDS011;63818;37.134;-8.548;2023-05-31T19:53:52;9.5;;;4.7;;
72123;SDS011;63818;37.134;-8.548;2023-05-31T19:58:38;8.4;;;4.7;;
72123;SDS011;63818;37.134;-8.548;2023-05-31T20:03:26;8.4;;;4.9;;
72123;SDS011;63818;37.134;-8.548;2023-05-31T20:08:12;7.4;;;4.7;;
72123;SDS011;63818;37.134;-8.548;2023-05-31T20:13:01;8.9;;;4.9;;
72123;SDS011;63818;37.134;-8.548;2023-05-31T20:17:47;11.4;;;5.1;;
72123;SDS011;63818;37.134;-8.548;2023-05-31T20:22:34;9.8;;;4.7;;
72123;SDS011;63818;37.134;-8.548;2023-05-31T20:27:20;7.6;;;4.7;;
72123;SDS011;63818;37.134;-8.548;2023-05-31T20:32:07;9.2;;;5.1;;
72123;SDS011;63818;37.134;-8.548;2023-05-31T20:36:53;9.3;;;5.1;;
72123;SDS011;63818;37.134;-8.548;2023-05-31T20:41:40;9.4;;;5.1;;
72123;SDS011;63818;37.134;-8.548;2023-05-31T20:46:28;11.0;;;5.4;;
72123;SDS011;63818;37.134;-8.548;2023-05-31T20:51:14;9.5;;;5.3;;
72123;SDS011;63818;37.134;-8.548;2023-05-31T20:56:01;10.2;;;5.3;;
72123;SDS011;63818;37.134;-8.548;2023-05-31T21:00:50;11.4;;;5.4;;
72123;SDS011;63818;37.134;-8.548;2023-05-31T21:05:37;8.8;;;4.8;;
72123;SDS011;63818;37.134;-8.548;2023-05-31T21:10:23;8.2;;;4.6;;
72123;SDS011;63818;37.134;-8.548;2023-05-31T21:15:10;8.9;;;4.6;;
72123;SDS011;63818;37.134;-8.548;2023-05-31T21:19:57;9.5;;;4.6;;
72123;SDS011;63818;37.134;-8.548;2023-05-31T21:24:43;8.7;;;4.8;;
72123;SDS011;63818;37.134;-8.548;2023-05-31T21:29:29;8.4;;;4.9;;
72123;SDS011;63818;37.134;-8.548;2023-05-31T21:34:16;10.2;;;5.5;;
72123;SDS011;63818;37.134;-8.548;2023-05-31T21:39:03;9.9;;;5.5;;
72123;SDS011;63818;37.134;-8.548;2023-05-31T21:43:50;8.4;;;4.8;;
72123;SDS011;63818;37.134;-8.548;2023-05-31T21:48:36;7.8;;;4.8;;
72123;SDS011;63818;37.134;-8.548;2023-05-31T21:53:23;8.4;;;5.1;;
72123;SDS011;63818;37.134;-8.548;2023-05-31T21:58:10;10.7;;;4.9;;
72123;SDS011;63818;37.134;-8.548;2023-05-31T22:02:55;10.6;;;4.7;;
72123;SDS011;63818;37.134;-8.548;2023-05-31T22:07:42;12.5;;;4.9;;
72123;SDS011;63818;37.134;-8.548;2023-05-31T22:12:31;12.4;;;5.2;;
72123;SDS011;63818;37.134;-8.548;2023-05-31T22:17:18;9.0;;;5.0;;
72123;SDS011;63818;37.134;-8.548;2023-05-31T22:22:05;9.5;;;4.6;;
72123;SDS011;63818;37.134;-8.548;2023-05-31T22:26:52;9.0;;;4.8;;
72123;SDS011;63818;37.134;-8.548;2023-05-31T22:31:41;9.7;;;5.3;;
72123;SDS011;63818;37.134;-8.548;2023-05-31T22:36:27;9.5;;;5.2;;
72123;SDS011;63818;37.134;-8.548;2023-05-31T22:41:14;9.0;;;4.7;;
72123;SDS011;63818;37.134;-8.548;2023-05-31T22:46:00;9.8;;;4.9;;
72123;SDS011;63818;37.134;-8.548;2023-05-31T22:50:47;9.3;;;5.1;;
72123;SDS011;63818;37.134;-8.548;2023-05-31T22:55:34;10.6;;;4.9;;
72123;SDS011;63818;37.134;-8.548;2023-05-31T23:00:20;10.5;;;5.0;;
72123;SDS011;63818;37.134;-8.548;2023-05-31T23:05:08;8.5;;;4.8;;
72123;SDS011;63818;37.134;-8.548;2023-05-31T23:09:56;8.1;;;4.9;;
72123;SDS011;63818;37.134;-8.548;2023-05-31T23:14:42;9.4;;;5.2;;
72123;SDS011;63818;37.134;-8.548;2023-05-31T23:19:28;10.2;;;5.1;;
72123;SDS011;63818;37.134;-8.548;2023-05-31T23:24:14;10.8;;;5.0;;
72123;SDS011;63818;37.134;-8.548;2023-05-31T23:29:00;12.1;;;5.1;;
72123;SDS011;63818;37.134;-8.548;2023-05-31T23:33:47;9.9;;;4.9;;
72123;SDS011;63818;37.134;-8.548;2023-05-31T23:38:34;8.2;;;4.9;;
72123;SDS011;63818;37.134;-8.548;2023-05-31T23:43:19;8.7;;;4.8;;
72123;SDS011;63818;37.134;-8.548;2023-05-31T23:48:07;8.7;;;4.8;;
72123;SDS011;63818;37.134;-8.548;2023-05-31T23:52:53;8.5;;;4.8;;
72123;SDS011;63818;37.134;-8.548;2023-05-31T23:57:39;8.1;;;4.9;;
